logo
Search for airport 
image banner adimage banner adimage banner ad
image banner ad

LSGC - Les Eplatures

Located in La Chaux-De-Fonds, Switzerland

ICAO - LSGC, IATA -

Data provided by Airmate  

General information

Coordinates: N47°5'3" E6°47'37"
Elevation is 3366 feet MSL.
Magnetic variation is 2.285° East
View others Airports in Neuchâtel

Operational data

Special qualification required
Current time UTC:
Current local time:
Weather
METAR: LSGC 170620Z AUTO VRB02KT 1600 -SN BKN006 00/M00 Q1010
TAF: TAF COR LSGC 170545Z 1706/1715 24005KT 4000 -SHSN BKN007 TEMPO 1706/1715 1500 SHSN VV003 PROB30 TEMPO 1711/1715 9000 BKN020
View NOTAMs / SUP AIP / TFR affecting this airport [VIEW]
Communications frequencies: [VIEW]

Runways:

RWY identifierQFULength (ft)Width (ft)SurfaceLDA (ft)
0654°357689ASPH3458
24234°357689ASPH3474

Airport contact information

Address: La Chaux-De-Fonds Switzerland

Handlers

Aeroport Regional Les Eplatures Sa

Aeroport Regional Les Eplatures Sa

Satellite view of LSGC